METAR Reports LIMOGES - BRIVE - BERGERAC - ANGOULEME - CLERMOND-FERRAND - AURILLAC

 

LFBL - Aeroport de Limoges-Bellegarde
Distance from station: NE 45km
Mise à jour: 24/05/2024 15:30
Pluie, Brouillard, Orages
Pluie, Brouillard, Orages
 Wind from O
Vent: O 9 km/h
Température: 12°C
Pt de rosée: 11°C
Humidité: 94%
Baromètre: 1019 hPa
Résumé: Pluie, Brouillard
Clouds: Orages
Visibility: 5 km
Cloud details: Quelques nuages 1158 m
Couvert 1646 m
2024/05/24 13:30 LFBL 241330Z AUTO 26005KT 5000 RA BR FEW038/// OVC054/// ///TCU 12/11 Q1019 TEMPO NSW
LFSL - Aeroport de Brive-Vallee de la Dordogne
Distance from station: S 40km
Mise à jour: 24/05/2024 15:30
Couvert
Couvert
 Wind from NO
Vent: NO 9 km/h
Température: 17°C
Pt de rosée: 8°C
Humidité: 56%
Baromètre: 1019 hPa
Clouds: Couvert
Visibility: 10 km
Cloud details: Partiellement nuageux 1372 m
Couvert 2316 m
2024/05/24 13:30 LFSL 241330Z AUTO 31005KT 260V350 9999 SCT045 OVC076 17/08 Q1019 TEMPO 4000 -SHRA BKN030TCU
 
LFBE - Aeroport de Bergerac-Dordogne-Perigord
Distance from station: SO 150km
Mise à jour: 24/05/2024 15:30
Clair
Clair
 Wind from varies
Vent: varies 6 km/h
Température: 22°C
Pt de rosée: 10°C
Humidité: 47%
Baromètre: 1018 hPa
Résumé: Clair
Visibility: greater than 10 km
2024/05/24 13:30 LFBE 241330Z AUTO VRB03KT CAVOK 22/10 Q1018 TEMPO 4000 -SHRA BKN030TCU
LFBU - Aeroport international Angouleme-Cognac
Distance from station: SSO 120km
Mise à jour: 24/05/2024 15:30
Orages
Orages
 Wind from varies
Vent: varies 4 km/h
Température: 18°C
Pt de rosée: 10°C
Humidité: 60%
Baromètre: 1019 hPa
Clouds: Orages
Visibility: 10 km
2024/05/24 13:30 LFBU 241330Z AUTO VRB02KT 9999 ///CB 18/10 Q1019 TEMPO 1500 TSRA BKN010 BKN015CB
 
LFLC - Aeroport de Clermont-Ferrand Auvergne
Distance from station: E 200km
Mise à jour: 24/05/2024 15:30
Partiellement nuageux
Partiellement nuageux
 Wind from varies
Vent: varies 7 km/h
Température: 20°C
Pt de rosée: 9°C
Humidité: 49%
Baromètre: 1017 hPa
Clouds: Partiellement nuageux
Visibility: 10 km
Cloud details: Partiellement nuageux 1463 m
2024/05/24 13:30 LFLC 241330Z AUTO VRB04KT 9999 SCT048 20/09 Q1017 TEMPO VRB15G25KT 2500 TSRA SCT030CB
LFLW - Aeroport Aurillac
Distance from station: SE 120km
Mise à jour: 24/05/2024 15:30
Clair
Clair
 Wind from O
Vent: O 11 km/h
Température: 16°C
Pt de rosée: 5°C
Humidité: 48%
Baromètre: 1018 hPa
Résumé: Clair
Visibility: greater than 10 km
2024/05/24 13:30 LFLW 241330Z AUTO 26006KT 220V310 CAVOK 16/05 Q1018 TEMPO SHRA SCT030TCU